Time;durP1;ratioP1;P1;durP2;ratioP2;P2;SDS_P1;SDS_P2;PMS_P1;PMS_P2;Temp;Humidity;BMP_temperature;BMP_pressure;BME280_temperature;BME280_humidity;BME280_pressure;Samples;Min_cycle;Max_cycle;Signal;HPM_P1;HPM_P2
2023/01/03 00:01:16;;;;;;;36.17;20.98;;;;;;;6.71;81.19;100940.25;5039134;28;20124;-67
2023/01/03 00:03:42;;;;;;;44.38;22.10;;;;;;;6.69;81.72;100947.41;5039182;28;20049;-66
2023/01/03 00:06:34;;;;;;;36.85;22.55;;;;;;;6.60;82.11;100955.94;5039968;28;20060;-65
2023/01/03 00:09:01;;;;;;;145.63;60.22;;;;;;;6.81;81.50;100945.69;5038061;28;20267;-66
2023/01/03 00:14:17;;;;;;;149.63;68.35;;;;;;;7.02;80.41;100952.91;5036550;28;20274;-66
2023/01/03 00:16:44;;;;;;;73.20;37.53;;;;;;;7.09;80.84;100950.69;5040886;28;20053;-66
2023/01/03 00:19:12;;;;;;;72.78;34.78;;;;;;;7.22;80.47;100950.63;5039495;28;20323;-66
2023/01/03 00:21:38;;;;;;;64.10;34.47;;;;;;;7.24;78.90;100954.84;5038800;28;20215;-66
2023/01/03 00:24:05;;;;;;;39.78;21.38;;;;;;;7.23;78.33;100958.41;5038345;28;20040;-66
2023/01/03 00:26:31;;;;;;;31.13;19.23;;;;;;;7.11;78.53;100947.94;5040067;28;20037;-67
2023/01/03 00:28:57;;;;;;;42.70;22.15;;;;;;;7.10;77.64;100948.88;5039868;28;20060;-66
2023/01/03 00:31:22;;;;;;;32.38;19.92;;;;;;;7.00;76.57;100943.44;5038956;28;20049;-68
2023/01/03 00:33:48;;;;;;;31.85;18.80;;;;;;;6.84;76.82;100948.13;5039324;28;20044;-66
2023/01/03 00:36:13;;;;;;;32.67;19.90;;;;;;;6.85;77.17;100948.00;5039665;28;20060;-66
2023/01/03 00:38:39;;;;;;;38.30;21.85;;;;;;;6.86;77.69;100940.94;5036849;28;20391;-66
2023/01/03 00:41:09;;;;;;;35.03;19.77;;;;;;;6.92;78.01;100943.13;5037558;28;20037;-66
2023/01/03 00:43:36;;;;;;;33.17;20.05;;;;;;;6.95;77.99;100941.13;5037118;28;20223;-66
2023/01/03 00:46:03;;;;;;;35.00;19.88;;;;;;;6.93;77.16;100942.19;5037099;28;20445;-66
2023/01/03 00:48:29;;;;;;;31.35;19.50;;;;;;;6.74;77.57;100940.03;5038345;28;20293;-67
2023/01/03 00:50:55;;;;;;;30.15;18.00;;;;;;;6.61;77.51;100944.47;5039361;28;20657;-66
2023/01/03 00:53:20;;;;;;;28.08;16.70;;;;;;;6.32;77.96;100939.44;5038540;28;20225;-66
2023/01/03 00:55:47;;;;;;;30.23;17.73;;;;;;;6.18;79.04;100941.31;5037875;28;20046;-63
2023/01/03 00:58:12;;;;;;;31.63;18.58;;;;;;;6.15;79.88;100928.38;5038998;28;20061;-64
2023/01/03 01:00:38;;;;;;;31.33;18.42;;;;;;;6.22;80.19;100937.50;5037776;28;20103;-66
2023/01/03 01:03:04;;;;;;;34.42;19.30;;;;;;;6.33;78.96;100938.50;5039375;28;20030;-65
2023/01/03 01:05:30;;;;;;;27.95;17.52;;;;;;;6.45;77.98;100936.81;5038813;28;20451;-66
2023/01/03 01:07:56;;;;;;;31.08;18.25;;;;;;;6.54;77.33;100933.53;5038890;28;20079;-66
2023/01/03 01:10:22;;;;;;;29.00;17.65;;;;;;;6.57;77.55;100932.47;5037546;28;20034;-66
2023/01/03 01:12:47;;;;;;;29.02;15.68;;;;;;;6.30;78.21;100927.34;5038288;28;20362;-67
2023/01/03 01:15:13;;;;;;;28.30;17.48;;;;;;;6.08;79.06;100918.25;5038282;28;20041;-66
2023/01/03 01:17:39;;;;;;;25.50;16.20;;;;;;;6.27;79.47;100920.50;5041064;28;20108;-65
2023/01/03 01:20:06;;;;;;;26.13;15.85;;;;;;;6.32;79.37;100920.19;5039569;28;20249;-67
2023/01/03 01:22:33;;;;;;;33.28;17.02;;;;;;;6.38;79.31;100919.75;5043178;28;20045;-66
2023/01/03 01:24:59;;;;;;;26.80;16.67;;;;;;;6.47;79.22;100916.50;5056216;28;20048;-66
2023/01/03 01:27:24;;;;;;;32.28;18.38;;;;;;;6.56;78.53;100913.22;5048960;28;20080;-66
2023/01/03 01:29:50;;;;;;;35.45;18.77;;;;;;;6.56;79.48;100907.94;5038612;28;20037;-66
2023/01/03 01:32:15;;;;;;;32.70;19.17;;;;;;;6.56;80.01;100909.75;5038718;28;20045;-66
2023/01/03 01:34:41;;;;;;;33.50;18.58;;;;;;;6.54;80.40;100920.38;5039347;28;20124;-67
2023/01/03 01:37:06;;;;;;;33.00;19.30;;;;;;;6.57;80.07;100909.63;5038826;28;20148;-65
2023/01/03 01:39:32;;;;;;;32.05;17.35;;;;;;;6.63;80.09;100908.34;5039517;28;20322;-66
2023/01/03 01:44:53;;;;;;;25.13;16.40;;;;;;;6.35;81.90;100910.28;5040413;28;20448;-67
2023/01/03 01:47:37;;;;;;;24.02;15.93;;;;;;;6.46;81.43;100909.53;5039730;28;20056;-67
2023/01/03 01:50:02;;;;;;;29.45;18.00;;;;;;;6.42;81.80;100907.25;5040017;28;20421;-65
2023/01/03 01:52:31;;;;;;;27.13;19.17;;;;;;;6.57;81.66;100898.25;5039781;28;20048;-67
2023/01/03 01:55:00;;;;;;;31.20;17.85;;;;;;;6.59;80.10;100901.63;5039675;28;20132;-66
2023/01/03 01:57:25;;;;;;;26.75;16.08;;;;;;;6.65;80.00;100896.78;5042622;28;20045;-66
2023/01/03 01:59:51;;;;;;;26.02;15.80;;;;;;;6.71;79.27;100900.75;5041461;28;20033;-66
2023/01/03 02:02:19;;;;;;;25.58;15.40;;;;;;;6.75;79.13;100899.59;5043306;28;20056;-65
2023/01/03 02:04:47;;;;;;;26.13;15.80;;;;;;;6.63;78.59;100895.19;5041273;28;20052;-67
2023/01/03 02:07:13;;;;;;;23.77;15.40;;;;;;;6.56;79.35;100897.44;5042596;28;20033;-66
2023/01/03 02:09:39;;;;;;;27.42;15.48;;;;;;;6.66;78.96;100897.63;5040987;28;20037;-67
2023/01/03 02:15:49;;;;;;;26.38;15.65;;;;;;;6.69;77.82;100906.13;5042135;28;20230;-67
2023/01/03 02:18:24;;;;;;;27.95;15.90;;;;;;;6.69;76.94;100894.75;5041358;28;20084;-67
2023/01/03 02:21:11;;;;;;;30.63;15.55;;;;;;;6.68;76.78;100893.91;5041917;28;20329;-66
2023/01/03 02:23:57;;;;;;;25.17;15.30;;;;;;;6.70;76.88;100891.19;5041014;28;20112;-67
2023/01/03 02:26:39;;;;;;;29.38;16.40;;;;;;;6.56;75.49;100897.44;5041989;28;20331;-66
2023/01/03 02:29:46;;;;;;;21.92;14.57;;;;;;;6.55;75.86;100895.75;5039989;28;20053;-66
2023/01/03 02:32:40;;;;;;;24.20;15.10;;;;;;;6.46;74.65;100891.13;5003754;28;20045;-67
2023/01/03 02:35:18;;;;;;;27.52;15.43;;;;;;;6.31;76.48;100893.03;5012551;28;20049;-66
2023/01/03 02:37:57;;;;;;;24.40;15.13;;;;;;;6.18;76.88;100886.91;5042139;28;20037;-66
2023/01/03 02:40:34;;;;;;;27.48;15.85;;;;;;;6.19;77.57;100885.13;5041184;28;20265;-66
2023/01/03 02:43:21;;;;;;;25.45;15.20;;;;;;;6.22;76.91;100884.91;5041608;28;20045;-66
2023/01/03 02:46:07;;;;;;;24.73;15.40;;;;;;;6.27;76.32;100882.84;5038157;28;20140;-67
2023/01/03 02:48:42;;;;;;;23.00;13.85;;;;;;;6.22;75.96;100888.38;5040147;28;20307;-67
2023/01/03 02:51:18;;;;;;;22.00;14.23;;;;;;;6.12;75.18;100882.09;5041039;28;20048;-65
2023/01/03 02:53:46;;;;;;;26.05;14.55;;;;;;;6.09;75.32;100883.13;5041798;28;20029;-67
2023/01/03 02:56:17;;;;;;;25.90;14.93;;;;;;;5.97;75.52;100870.00;5040591;28;20037;-66
2023/01/03 02:58:48;;;;;;;25.95;15.02;;;;;;;6.12;75.30;100886.50;5039812;28;20075;-66
2023/01/03 03:01:16;;;;;;;25.85;14.63;;;;;;;6.15;75.38;100892.38;5040821;28;20045;-67
2023/01/03 03:03:43;;;;;;;24.90;15.52;;;;;;;6.19;75.09;100893.84;5044385;28;20048;-66
2023/01/03 03:06:39;;;;;;;28.52;16.33;;;;;;;6.15;76.35;100892.38;5039574;28;20060;-67
2023/01/03 03:09:05;;;;;;;28.95;16.70;;;;;;;6.22;75.66;100884.91;5040350;28;20047;-66
2023/01/03 03:14:26;;;;;;;33.33;18.42;;;;;;;6.25;75.55;100888.22;5040709;28;20076;-66
2023/01/03 03:16:54;;;;;;;28.05;16.67;;;;;;;6.21;75.15;100885.88;5040322;28;20041;-65
2023/01/03 03:25:39;;;;;;;25.83;15.95;;;;;;;6.23;75.31;100886.59;5039256;28;20576;-66
2023/01/03 03:30:55;;;;;;;25.13;15.07;;;;;;;6.22;73.00;100879.66;5038574;28;20080;-66
2023/01/03 03:33:23;;;;;;;24.33;15.43;;;;;;;6.21;74.25;100881.44;5037827;28;20056;-68
2023/01/03 03:36:23;;;;;;;25.08;15.85;;;;;;;6.24;75.37;100885.66;5038852;28;20041;-65
2023/01/03 03:38:49;;;;;;;27.45;16.38;;;;;;;6.22;75.54;100879.66;4966620;28;20070;-67
2023/01/03 03:47:46;;;;;;;27.33;15.00;;;;;;;6.11;73.17;100877.78;5040260;28;20083;-66
2023/01/03 03:50:34;;;;;;;24.83;17.02;;;;;;;6.11;72.67;100877.78;5039890;28;20037;-66
2023/01/03 03:53:06;;;;;;;29.80;17.52;;;;;;;6.11;73.13;100879.56;5037916;28;20038;-66
2023/01/03 03:55:49;;;;;;;31.90;18.25;;;;;;;6.13;74.34;100881.13;5037279;28;20064;-65
2023/01/03 03:58:22;;;;;;;33.42;18.83;;;;;;;6.15;75.18;100868.72;5039758;28;20310;-65
2023/01/03 04:00:51;;;;;;;34.15;21.75;;;;;;;6.17;75.66;100873.88;5040033;28;20277;-66
2023/01/03 04:03:19;;;;;;;33.45;20.55;;;;;;;6.12;76.36;100873.34;5039753;28;20278;-66
2023/01/03 04:06:00;;;;;;;49.35;24.00;;;;;;;6.13;76.15;100869.78;5039663;28;20251;-65
2023/01/03 04:08:26;;;;;;;47.88;23.33;;;;;;;6.12;76.04;100868.94;5038588;28;20273;-66
2023/01/03 04:11:04;;;;;;;41.65;23.05;;;;;;;6.06;76.35;100864.94;5038850;28;20101;-67
2023/01/03 04:13:30;;;;;;;52.08;25.73;;;;;;;6.02;76.82;100875.78;5038271;28;20350;-66
2023/01/03 04:15:55;;;;;;;47.35;24.17;;;;;;;5.94;76.78;100871.03;5035914;28;20048;-66
2023/01/03 04:18:21;;;;;;;44.67;21.63;;;;;;;5.98;76.36;100874.31;5036836;28;20033;-66
2023/01/03 04:20:46;;;;;;;33.25;19.60;;;;;;;5.97;76.08;100876.09;5038088;28;20041;-66
2023/01/03 04:23:12;;;;;;;32.90;18.77;;;;;;;5.89;73.79;100885.41;5038615;28;20365;-66
2023/01/03 04:25:37;;;;;;;31.48;19.33;;;;;;;5.88;73.91;100881.94;5038980;28;20037;-68
2023/01/03 04:28:03;;;;;;;32.42;17.27;;;;;;;5.88;73.76;100886.34;5040234;28;20081;-66
2023/01/03 04:30:28;;;;;;;34.97;18.48;;;;;;;5.81;74.06;100882.47;5039997;28;20108;-66
2023/01/03 04:32:54;;;;;;;33.10;17.90;;;;;;;5.74;73.22;100885.50;5040314;28;20033;-67
2023/01/03 04:35:19;;;;;;;29.92;18.25;;;;;;;5.75;74.08;100887.19;5039421;28;20032;-66
2023/01/03 04:37:45;;;;;;;36.90;20.38;;;;;;;5.82;74.46;100894.66;5039868;28;20310;-66
2023/01/03 04:40:10;;;;;;;29.60;18.67;;;;;;;5.78;75.49;100881.72;5039328;28;20356;-66
2023/01/03 04:45:20;;;;;;;23.73;15.30;;;;;;;5.70;77.06;100893.69;5041159;28;20438;-66
2023/01/03 04:47:45;;;;;;;28.20;16.27;;;;;;;5.64;77.61;100880.97;5044839;28;20219;-67
2023/01/03 04:50:11;;;;;;;22.27;13.98;;;;;;;5.69;77.89;100882.34;5058070;28;20041;-65
2023/01/03 04:52:36;;;;;;;26.40;15.55;;;;;;;5.69;77.37;100889.38;5057178;28;20041;-66
2023/01/03 04:55:02;;;;;;;24.92;15.82;;;;;;;5.66;75.80;100895.69;5057855;28;20039;-66
2023/01/03 04:57:27;;;;;;;28.73;17.50;;;;;;;5.29;73.69;100899.06;5057061;28;20068;-66
2023/01/03 04:59:53;;;;;;;31.23;17.70;;;;;;;5.11;74.62;100891.41;5057385;28;20215;-67
2023/01/03 05:02:18;;;;;;;30.85;17.25;;;;;;;5.20;74.38;100897.00;5057290;28;20045;-66
2023/01/03 05:04:43;;;;;;;30.95;17.23;;;;;;;5.26;74.60;100899.25;5057830;28;20033;-66
2023/01/03 05:07:09;;;;;;;30.10;17.90;;;;;;;5.37;74.64;100902.88;5057037;28;20044;-65
2023/01/03 05:09:34;;;;;;;35.22;18.67;;;;;;;5.36;74.99;100903.81;5057066;28;20286;-66
2023/01/03 05:12:00;;;;;;;33.60;18.33;;;;;;;5.29;75.69;100905.16;5056950;28;20033;-64
2023/01/03 05:14:25;;;;;;;32.67;18.90;;;;;;;5.31;75.22;100903.28;5056563;28;20047;-64
2023/01/03 05:16:51;;;;;;;32.20;17.27;;;;;;;5.37;74.54;100902.88;5056849;28;20204;-63
2023/01/03 05:19:16;;;;;;;34.22;18.27;;;;;;;5.20;75.03;100903.13;5058709;28;20274;-63
2023/01/03 05:25:48;;;;;;;36.92;18.33;;;;;;;5.23;75.90;100908.19;5061072;28;20361;-64
2023/01/03 05:27:21;;;;;;;32.38;18.02;;;;;;;5.26;76.11;100910.63;5061372;28;20052;-66
2023/01/03 05:29:49;;;;;;;61.25;27.70;;;;;;;5.38;75.50;100907.19;5061677;28;20059;-66
2023/01/03 05:32:15;;;;;;;34.08;18.60;;;;;;;5.45;75.16;100915.50;5060853;28;20043;-66
2023/01/03 05:34:41;;;;;;;37.17;19.83;;;;;;;5.49;74.93;100918.78;5061082;28;20029;-66
2023/01/03 05:37:06;;;;;;;35.78;18.27;;;;;;;5.39;75.13;100913.28;5061052;28;20045;-66
2023/01/03 05:39:32;;;;;;;41.22;20.92;;;;;;;5.48;75.42;100914.47;5060785;28;20104;-66
2023/01/03 05:42:00;;;;;;;37.70;19.35;;;;;;;5.43;75.21;100918.22;5059404;28;20243;-66
2023/01/03 05:44:35;;;;;;;45.83;22.30;;;;;;;5.51;75.06;100912.47;5059082;28;20045;-66
2023/01/03 05:47:03;;;;;;;44.22;21.13;;;;;;;5.58;74.49;100918.16;5059330;28;20033;-66
2023/01/03 05:49:28;;;;;;;33.00;16.88;;;;;;;5.61;73.23;100916.19;5059909;28;20045;-66
2023/01/03 05:51:54;;;;;;;35.80;19.38;;;;;;;5.65;72.65;100922.06;5060271;28;20033;-66
2023/01/03 05:54:20;;;;;;;32.58;19.10;;;;;;;5.67;72.73;100925.44;5059740;28;20326;-66
2023/01/03 05:56:46;;;;;;;40.63;23.58;;;;;;;5.53;73.15;100915.00;5059435;28;20343;-64
2023/01/03 05:59:11;;;;;;;38.50;22.65;;;;;;;5.48;74.04;100915.31;5058739;28;20029;-63
2023/01/03 06:01:37;;;;;;;43.42;24.15;;;;;;;5.54;73.31;100922.78;5059335;28;20036;-63
2023/01/03 06:04:02;;;;;;;43.50;24.60;;;;;;;5.37;73.53;100923.03;5058851;28;20052;-66
2023/01/03 06:06:28;;;;;;;40.90;21.65;;;;;;;5.29;73.68;100927.94;5058234;28;20064;-66
2023/01/03 06:08:54;;;;;;;36.95;21.35;;;;;;;5.38;73.51;100924.72;5055750;28;20037;-66
2023/01/03 06:11:19;;;;;;;31.33;18.52;;;;;;;5.43;73.27;100936.63;5054696;28;20037;-65
2023/01/03 06:13:45;;;;;;;33.50;17.70;;;;;;;5.35;72.84;100938.91;5055944;28;20092;-66
2023/01/03 06:19:01;;;;;;;31.80;15.60;;;;;;;5.36;72.06;100942.38;5053598;28;20036;-65
2023/01/03 06:21:26;;;;;;;27.60;15.73;;;;;;;5.18;72.60;100925.16;5052077;28;20039;-66
2023/01/03 06:23:52;;;;;;;25.67;15.70;;;;;;;5.34;72.97;100934.59;5049594;28;20052;-66
2023/01/03 06:26:19;;;;;;;27.67;14.77;;;;;;;5.43;73.60;100933.16;5052944;28;20067;-66
2023/01/03 06:28:45;;;;;;;26.08;14.27;;;;;;;5.48;74.47;100933.69;5053882;28;20335;-66
2023/01/03 06:31:11;;;;;;;38.58;22.35;;;;;;;5.56;73.85;100936.66;5053066;28;20040;-66
2023/01/03 06:33:37;;;;;;;40.67;23.45;;;;;;;5.55;74.16;100926.25;5054829;28;20033;-67
2023/01/03 06:36:05;;;;;;;37.70;23.38;;;;;;;5.63;74.92;100935.31;5052975;28;20212;-66
2023/01/03 06:38:30;;;;;;;43.60;21.02;;;;;;;5.66;76.03;100934.25;5054015;28;20029;-69
2023/01/03 06:40:56;;;;;;;44.05;22.08;;;;;;;5.70;76.17;100931.34;5052884;28;20308;-66
2023/01/03 06:43:21;;;;;;;45.35;23.88;;;;;;;5.78;76.51;100931.66;5055577;28;20210;-67
2023/01/03 06:54:03;;;;;;;26.75;14.77;;;;;;;6.08;77.81;100938.47;5053311;28;20101;-67
2023/01/03 06:56:28;;;;;;;24.90;15.27;;;;;;;6.20;77.88;100949.94;5051693;28;20045;-66
2023/01/03 06:58:54;;;;;;;29.10;14.73;;;;;;;6.33;77.91;100942.91;5054888;28;20044;-66
2023/01/03 07:01:21;;;;;;;27.77;16.23;;;;;;;6.42;76.81;100933.53;5053273;28;20061;-66
2023/01/03 07:03:46;;;;;;;44.88;21.60;;;;;;;6.51;76.61;100941.63;5055164;28;20040;-66
2023/01/03 07:06:12;;;;;;;28.98;17.90;;;;;;;6.50;77.20;100939.97;5051698;28;20357;-66
2023/01/03 07:08:37;;;;;;;38.63;20.92;;;;;;;6.60;77.91;100943.63;5054827;28;20041;-66
2023/01/03 07:11:02;;;;;;;40.80;23.17;;;;;;;6.67;77.68;100936.16;5051888;28;20036;-66
2023/01/03 07:16:14;;;;;;;33.70;19.23;;;;;;;6.65;79.11;100938.03;5058464;28;20078;-66
2023/01/03 07:18:40;;;;;;;29.30;17.17;;;;;;;6.79;78.90;100937.91;5061651;28;20032;-66
2023/01/03 07:21:08;;;;;;;31.75;15.50;;;;;;;6.81;78.78;100933.38;5062465;28;20045;-66
2023/01/03 07:23:34;;;;;;;28.13;15.57;;;;;;;6.86;78.73;100938.31;5057826;28;20123;-66
2023/01/03 07:25:59;;;;;;;34.25;17.95;;;;;;;7.05;78.43;100936.88;5057437;28;20040;-66
2023/01/03 07:28:25;;;;;;;45.55;24.27;;;;;;;7.21;78.11;100938.41;5058238;28;20048;-66
2023/01/03 07:30:50;;;;;;;45.13;21.23;;;;;;;7.13;78.96;100938.13;5058095;28;20354;-66
2023/01/03 07:33:17;;;;;;;35.13;17.83;;;;;;;7.34;78.89;100934.81;5058326;28;20258;-65
2023/01/03 07:35:43;;;;;;;35.15;17.85;;;;;;;7.50;78.62;100936.31;5057226;28;20844;-66
2023/01/03 07:38:11;;;;;;;30.63;17.45;;;;;;;7.60;78.83;100937.31;5056851;28;20040;-67
2023/01/03 07:40:36;;;;;;;27.60;16.73;;;;;;;7.74;78.35;100941.56;5057363;28;20211;-67
2023/01/03 07:45:46;;;;;;;23.98;13.15;;;;;;;7.80;78.88;100939.28;5057284;28;20051;-67
2023/01/03 07:48:12;;;;;;;21.45;12.38;;;;;;;7.81;79.32;100937.50;5057447;28;20032;-66
2023/01/03 07:50:38;;;;;;;22.30;11.30;;;;;;;7.86;78.96;100938.00;5057711;28;20227;-66
2023/01/03 07:53:05;;;;;;;17.48;11.95;;;;;;;7.86;79.23;100938.00;5057875;28;20036;-67
2023/01/03 07:55:35;;;;;;;18.88;12.45;;;;;;;7.97;79.78;100933.59;5057764;28;20053;-68
2023/01/03 07:58:00;;;;;;;29.25;17.05;;;;;;;7.94;80.15;100941.72;5057101;28;20032;-66
2023/01/03 08:00:26;;;;;;;19.45;12.77;;;;;;;8.15;79.64;100943.69;5057436;28;20078;-66
2023/01/03 08:02:53;;;;;;;20.45;12.40;;;;;;;8.24;79.70;100935.91;5055937;28;20053;-64
2023/01/03 08:05:22;;;;;;;17.40;14.02;;;;;;;8.30;79.42;100945.16;5057622;28;20345;-64
2023/01/03 08:07:48;;;;;;;23.63;15.48;;;;;;;8.30;79.13;100945.16;5057935;28;20522;-66
2023/01/03 08:13:17;;;;;;;34.30;19.88;;;;;;;8.52;79.09;100931.19;5057906;28;20357;-67
2023/01/03 08:15:56;;;;;;;30.73;18.15;;;;;;;8.70;79.25;100928.91;5053086;28;20313;-63
2023/01/03 08:18:24;;;;;;;26.98;17.58;;;;;;;8.70;79.22;100932.41;5052071;28;20039;-65
2023/01/03 08:20:54;;;;;;;24.75;16.98;;;;;;;8.71;78.65;100928.78;5051755;28;20033;-64
2023/01/03 08:23:23;;;;;;;32.15;19.33;;;;;;;8.53;80.16;100932.88;5050443;28;20692;-65
2023/01/03 08:25:49;;;;;;;25.30;17.30;;;;;;;8.54;80.85;100932.75;5050688;28;20037;-64
2023/01/03 08:28:15;;;;;;;27.88;17.85;;;;;;;8.55;80.67;100926.53;5053396;28;20041;-64
2023/01/03 08:30:47;;;;;;;36.65;20.33;;;;;;;8.45;81.84;100922.09;5051611;28;20037;-64
2023/01/03 08:33:15;;;;;;;39.10;21.73;;;;;;;8.52;82.46;100916.19;5050587;28;20043;-64
2023/01/03 08:35:45;;;;;;;27.73;17.38;;;;;;;8.78;81.95;100918.59;5044534;28;20045;-64
2023/01/03 08:38:17;;;;;;;29.40;17.90;;;;;;;8.83;82.41;100917.25;5051633;28;20323;-64
2023/01/03 08:40:44;;;;;;;31.90;18.58;;;;;;;8.87;82.25;100913.41;5052477;28;20048;-64
2023/01/03 08:43:12;;;;;;;39.22;19.55;;;;;;;8.88;82.61;100901.03;5052362;28;20033;-64
2023/01/03 08:45:37;;;;;;;34.53;18.48;;;;;;;8.94;82.97;100911.94;5053404;28;20064;-64
2023/01/03 08:48:05;;;;;;;26.45;16.60;;;;;;;9.05;83.17;100905.81;5052574;28;20033;-65
2023/01/03 08:50:30;;;;;;;20.83;13.40;;;;;;;9.20;83.18;100903.72;5051096;28;20243;-64
2023/01/03 08:52:56;;;;;;;25.40;14.82;;;;;;;9.26;83.04;100896.13;5051865;28;20040;-64
2023/01/03 08:55:22;;;;;;;25.05;14.52;;;;;;;9.40;82.99;100895.03;5056184;28;20040;-64
2023/01/03 08:57:47;;;;;;;30.73;16.27;;;;;;;9.37;83.09;100890.00;5056369;28;20045;-65
2023/01/03 09:00:13;;;;;;;21.80;15.75;;;;;;;9.50;82.87;100882.72;5057062;28;20045;-65
2023/01/03 09:02:39;;;;;;;22.48;15.57;;;;;;;9.69;82.13;100895.25;5055701;28;20039;-64
2023/01/03 09:05:05;;;;;;;24.30;14.05;;;;;;;9.73;82.60;100883.44;5056523;28;20029;-64
2023/01/03 09:07:30;;;;;;;25.02;14.27;;;;;;;9.78;83.12;100888.34;5056634;28;20033;-63
2023/01/03 09:09:56;;;;;;;27.17;14.10;;;;;;;9.97;82.86;100885.00;5057294;28;20051;-65
2023/01/03 09:12:21;;;;;;;21.35;13.00;;;;;;;10.11;82.81;100879.34;5054176;28;20246;-63
2023/01/03 09:14:46;;;;;;;21.08;13.55;;;;;;;10.19;82.40;100877.72;5055210;28;20386;-65
2023/01/03 09:17:12;;;;;;;24.98;15.73;;;;;;;10.18;82.53;100864.63;5056059;28;20235;-64
2023/01/03 09:19:37;;;;;;;25.25;14.50;;;;;;;10.15;83.17;100871.03;5054304;28;20214;-64
2023/01/03 09:22:03;;;;;;;22.15;14.85;;;;;;;10.27;82.72;100855.91;5055288;28;20368;-64
2023/01/03 09:24:28;;;;;;;23.23;14.52;;;;;;;10.42;82.79;100859.06;5056892;28;20040;-67
2023/01/03 09:26:54;;;;;;;21.25;13.55;;;;;;;10.45;82.10;100849.06;5055655;28;20732;-68
2023/01/03 09:29:19;;;;;;;22.60;14.07;;;;;;;10.53;81.99;100851.03;5055119;28;20044;-66
2023/01/03 09:31:44;;;;;;;20.15;12.80;;;;;;;10.56;81.76;100850.75;5055842;28;20047;-67
2023/01/03 09:34:10;;;;;;;16.48;11.23;;;;;;;10.45;81.47;100840.28;5055070;28;20113;-66
2023/01/03 09:36:37;;;;;;;18.73;11.85;;;;;;;10.52;81.91;100842.25;5055477;28;20314;-67
2023/01/03 09:39:03;;;;;;;19.73;12.07;;;;;;;10.43;81.58;100831.63;5054917;28;20039;-67
2023/01/03 09:41:29;;;;;;;17.55;11.15;;;;;;;10.52;82.69;100822.88;5056200;28;20037;-67
2023/01/03 09:44:06;;;;;;;18.08;11.73;;;;;;;10.56;81.55;100821.63;5055049;28;20033;-67
2023/01/03 09:46:34;;;;;;;19.33;12.15;;;;;;;10.59;81.83;100813.41;5056101;28;20037;-65
2023/01/03 09:49:01;;;;;;;20.38;12.43;;;;;;;10.62;82.09;100810.50;5056424;28;20033;-67
2023/01/03 10:03:44;;;;;;;25.98;13.95;;;;;;;11.18;79.56;100785.97;5052532;28;20082;-67
2023/01/03 10:06:34;;;;;;;26.63;13.60;;;;;;;11.22;79.28;100784.72;5054114;28;20236;-66
2023/01/03 10:09:17;;;;;;;19.95;11.43;;;;;;;11.32;78.26;100774.94;5054142;28;20364;-66
2023/01/03 10:11:50;;;;;;;15.13;10.53;;;;;;;11.40;78.87;100769.75;5056201;28;20048;-67
2023/01/03 10:14:28;;;;;;;18.08;11.52;;;;;;;11.43;78.17;100768.66;5056450;28;20419;-67
2023/01/03 10:17:26;;;;;;;17.75;11.63;;;;;;;11.48;77.46;100769.91;5055612;28;20049;-66
2023/01/03 10:20:03;;;;;;;16.00;10.30;;;;;;;11.49;77.37;100771.59;5038702;28;20037;-66
2023/01/03 10:22:31;;;;;;;16.77;10.20;;;;;;;11.46;76.49;100761.28;5055910;28;20371;-67
2023/01/03 10:25:03;;;;;;;15.27;10.90;;;;;;;11.48;77.23;100767.28;5055514;28;20155;-67
2023/01/03 10:27:33;;;;;;;17.08;11.27;;;;;;;11.58;76.43;100758.44;5056840;28;20139;-67
2023/01/03 10:30:01;;;;;;;16.40;11.02;;;;;;;11.67;76.44;100760.25;5055311;28;20042;-66
2023/01/03 10:32:50;;;;;;;15.18;10.95;;;;;;;11.76;76.94;100749.59;5054291;28;20036;-64
2023/01/03 10:35:30;;;;;;;18.33;11.70;;;;;;;11.80;76.73;100742.22;5054217;28;20072;-65
2023/01/03 10:37:57;;;;;;;13.82;9.85;;;;;;;11.73;75.23;100741.09;5055070;28;20043;-64
2023/01/03 10:40:44;;;;;;;15.60;11.00;;;;;;;11.65;75.53;100735.66;5055771;28;20025;-68
2023/01/03 10:43:16;;;;;;;24.50;13.20;;;;;;;11.63;76.28;100734.97;5054340;28;20060;-67
2023/01/03 10:46:03;;;;;;;21.58;12.10;;;;;;;11.65;76.07;100727.72;5054617;28;20044;-68
2023/01/03 10:48:39;;;;;;;21.00;13.38;;;;;;;11.56;77.01;100728.59;5054513;28;20040;-67
2023/01/03 10:51:20;;;;;;;21.27;12.70;;;;;;;11.65;76.55;100725.06;5054130;28;20586;-67
2023/01/03 10:53:49;;;;;;;26.55;14.90;;;;;;;11.70;76.23;100715.69;5050888;28;20048;-64
2023/01/03 10:56:15;;;;;;;25.90;14.75;;;;;;;11.79;76.79;100714.84;5054869;28;20108;-64
2023/01/03 10:58:41;;;;;;;31.55;15.98;;;;;;;11.87;76.56;100710.63;5053062;28;20057;-64
2023/01/03 11:01:19;;;;;;;19.83;13.50;;;;;;;11.76;77.29;100701.84;5054201;28;20331;-64
2023/01/03 11:04:12;;;;;;;18.52;12.38;;;;;;;11.79;77.95;100704.22;5053893;28;20036;-65
2023/01/03 11:06:37;;;;;;;19.42;12.15;;;;;;;11.79;78.19;100698.91;5051689;28;20404;-64
2023/01/03 11:09:09;;;;;;;20.67;13.00;;;;;;;11.83;78.18;100692.34;5053245;28;20432;-65
2023/01/03 11:11:38;;;;;;;20.73;12.95;;;;;;;11.93;77.97;100688.81;5051735;28;20036;-64
2023/01/03 11:14:15;;;;;;;20.50;13.23;;;;;;;12.03;77.37;100679.78;5054457;28;20108;-65
2023/01/03 11:16:41;;;;;;;22.67;13.68;;;;;;;12.06;77.32;100673.34;5054278;28;20044;-65
2023/01/03 11:19:06;;;;;;;23.00;12.95;;;;;;;12.11;77.02;100674.59;5052405;28;20265;-66
2023/01/03 11:21:34;;;;;;;22.25;13.30;;;;;;;12.17;76.82;100664.34;5052614;28;20404;-66
2023/01/03 11:24:18;;;;;;;19.70;11.88;;;;;;;12.22;76.34;100660.25;5053690;28;20087;-65
2023/01/03 11:26:58;;;;;;;21.00;12.27;;;;;;;12.26;76.50;100656.31;5053961;28;20104;-66
2023/01/03 11:29:44;;;;;;;18.15;11.52;;;;;;;12.30;75.32;100649.72;5053421;28;20047;-66
2023/01/03 11:32:47;;;;;;;15.30;10.07;;;;;;;12.34;74.70;100656.41;5051232;28;20068;-64
2023/01/03 11:35:38;;;;;;;16.35;10.20;;;;;;;12.38;74.49;100647.13;5053936;28;20056;-65
2023/01/03 11:38:10;;;;;;;14.65;10.02;;;;;;;12.40;74.32;100645.16;5054326;28;20326;-65
2023/01/03 11:41:00;;;;;;;14.40;9.13;;;;;;;12.45;73.46;100653.50;5052476;28;20334;-66
2023/01/03 11:43:47;;;;;;;13.88;8.20;;;;;;;12.49;73.34;100651.41;5053569;28;20037;-65
2023/01/03 11:46:53;;;;;;;13.50;8.73;;;;;;;12.49;72.12;100639.97;5053925;28;20107;-65
2023/01/03 11:49:42;;;;;;;16.15;8.55;;;;;;;12.52;71.22;100632.50;5013923;28;20411;-65
2023/01/03 11:52:09;;;;;;;14.52;9.73;;;;;;;12.57;71.30;100635.56;5051854;28;20471;-65
2023/01/03 11:55:07;;;;;;;14.15;9.15;;;;;;;12.57;71.54;100629.41;5053424;28;20082;-65
2023/01/03 11:57:44;;;;;;;13.70;8.55;;;;;;;12.53;71.32;100622.72;5052470;28;20052;-64
2023/01/03 12:00:18;;;;;;;17.77;10.55;;;;;;;12.52;70.18;100621.06;5053500;28;20051;-67
2023/01/03 12:02:58;;;;;;;30.42;13.63;;;;;;;12.57;70.23;100616.94;5054902;28;20041;-67
2023/01/03 12:05:33;;;;;;;15.05;8.73;;;;;;;12.62;69.55;100616.50;5053626;28;20602;-65
2023/01/03 12:08:10;;;;;;;14.90;9.10;;;;;;;12.66;70.02;100609.88;5053346;28;20194;-65
2023/01/03 12:11:12;;;;;;;15.02;9.38;;;;;;;12.67;71.19;100607.06;5052839;28;20044;-67
2023/01/03 12:13:59;;;;;;;13.52;8.25;;;;;;;12.68;70.39;100605.25;5053599;28;20266;-66
2023/01/03 12:16:30;;;;;;;14.88;9.18;;;;;;;12.70;70.17;100604.09;5052530;28;20037;-65
2023/01/03 12:19:01;;;;;;;14.43;8.85;;;;;;;12.73;70.17;100601.13;5053374;28;20070;-65
2023/01/03 12:21:33;;;;;;;14.70;9.10;;;;;;;12.76;70.72;100597.34;5052780;28;20279;-66
2023/01/03 12:24:12;;;;;;;16.33;9.75;;;;;;;12.75;70.40;100596.50;5054600;28;20068;-65
2023/01/03 12:26:41;;;;;;;12.93;8.63;;;;;;;12.74;69.21;100600.16;5053267;28;20087;-65
2023/01/03 12:29:14;;;;;;;17.80;9.25;;;;;;;12.73;68.93;100593.16;5052322;28;20044;-65
2023/01/03 12:31:45;;;;;;;;;;;;;;;12.79;69.41;100602.34;5053746;28;20227;-67
2023/01/03 12:34:44;;;;;;;15.90;8.15;;;;;;;12.78;69.38;100595.34;5053321;28;20096;-66
2023/01/03 12:37:29;;;;;;;13.52;8.50;;;;;;;12.84;69.56;100581.44;5051280;28;20108;-67